createdAt,value
2023-05-22T00:01:32.799Z,81.19
2023-05-22T00:04:02.973Z,81.38
2023-05-22T00:06:34.186Z,81.49
2023-05-22T00:09:06.844Z,81.51
2023-05-22T00:11:37.144Z,81.25
2023-05-22T00:14:06.900Z,81.71
2023-05-22T00:16:36.677Z,81.66
2023-05-22T00:19:07.386Z,81.73
2023-05-22T00:21:37.748Z,81.54
2023-05-22T00:24:10.672Z,81.13
2023-05-22T00:26:40.487Z,81.01
2023-05-22T00:29:11.004Z,81.03
2023-05-22T00:31:40.812Z,81.23
2023-05-22T00:34:10.739Z,81.27
2023-05-22T00:36:40.613Z,81.25
2023-05-22T00:39:13.180Z,81.37
2023-05-22T00:41:43.009Z,81.59
2023-05-22T00:44:13.060Z,81.41
2023-05-22T00:46:43.427Z,81.65
2023-05-22T00:49:13.246Z,81.69
2023-05-22T00:51:43.026Z,81.53
2023-05-22T00:54:15.712Z,81.49
2023-05-22T00:56:45.651Z,81.95
2023-05-22T00:59:15.894Z,81.88
2023-05-22T01:01:45.792Z,82.03
2023-05-22T01:04:18.660Z,81.79
2023-05-22T01:06:49.631Z,81.92
2023-05-22T01:09:21.990Z,82.40
2023-05-22T01:11:58.705Z,82.44
2023-05-22T01:14:34.913Z,82.58
2023-05-22T01:17:10.100Z,82.58
2023-05-22T01:20:01.753Z,82.78
2023-05-22T01:23:02.935Z,82.64
2023-05-22T01:25:55.815Z,82.40
2023-05-22T01:28:40.214Z,82.58
2023-05-22T01:31:13.461Z,82.62
2023-05-22T01:33:49.424Z,82.78
2023-05-22T01:36:22.647Z,82.99
2023-05-22T01:38:52.952Z,83.28
2023-05-22T01:41:23.498Z,83.14
2023-05-22T01:43:53.319Z,83.49
2023-05-22T01:46:28.399Z,83.44
2023-05-22T01:48:58.332Z,83.51
2023-05-22T01:51:44.238Z,84.13
2023-05-22T01:54:20.236Z,83.81
2023-05-22T01:56:52.048Z,84.21
2023-05-22T01:59:26.759Z,84.14
2023-05-22T02:01:59.367Z,84.53
2023-05-22T02:04:30.290Z,84.50
2023-05-22T02:07:01.228Z,84.83
2023-05-22T02:09:32.899Z,84.83
2023-05-22T02:12:03.752Z,85.08
2023-05-22T02:14:34.719Z,85.30
2023-05-22T02:17:08.972Z,85.57
2023-05-22T02:19:38.932Z,85.79
2023-05-22T02:22:10.078Z,85.83
2023-05-22T02:24:40.222Z,85.39
2023-05-22T02:27:10.323Z,85.79
2023-05-22T02:29:40.146Z,85.61
2023-05-22T02:32:12.643Z,85.88
2023-05-22T02:34:42.396Z,85.82
2023-05-22T02:37:13.339Z,85.92
2023-05-22T02:39:43.686Z,85.96
2023-05-22T02:42:13.436Z,86.23
2023-05-22T02:44:43.208Z,86.20
2023-05-22T02:47:15.705Z,86.06
2023-05-22T02:49:45.584Z,85.91
2023-05-22T02:52:15.473Z,86.05
2023-05-22T02:54:45.311Z,86.33
2023-05-22T02:57:15.279Z,86.21
2023-05-22T02:59:45.039Z,86.46
2023-05-22T03:02:19.913Z,86.13
2023-05-22T03:04:51.334Z,86.34
2023-05-22T03:07:21.640Z,86.34
2023-05-22T03:09:51.476Z,86.40
2023-05-22T03:12:21.319Z,86.06
2023-05-22T03:14:51.139Z,86.45
2023-05-22T03:17:23.513Z,86.56
2023-05-22T03:19:53.353Z,86.71
2023-05-22T03:22:23.382Z,86.50
2023-05-22T03:24:53.660Z,86.61
2023-05-22T03:27:23.478Z,86.78
2023-05-22T03:29:53.313Z,87.07
2023-05-22T03:32:27.018Z,87.26
2023-05-22T03:34:57.080Z,87.11
2023-05-22T03:37:26.866Z,87.10
2023-05-22T03:39:56.766Z,87.25
2023-05-22T03:42:32.767Z,87.34
2023-05-22T03:45:02.845Z,87.66
2023-05-22T03:47:35.423Z,87.60
2023-05-22T03:50:06.148Z,87.85
2023-05-22T03:52:36.013Z,87.83
2023-05-22T03:55:08.073Z,88.00
2023-05-22T03:57:37.839Z,88.09
2023-05-22T04:00:10.053Z,88.12
2023-05-22T04:02:47.050Z,88.56
2023-05-22T04:05:17.508Z,88.32
2023-05-22T04:07:47.362Z,88.76
2023-05-22T04:10:17.114Z,88.71
2023-05-22T04:12:46.877Z,88.56
2023-05-22T04:15:16.583Z,88.67
2023-05-22T04:17:50.177Z,88.93
2023-05-22T04:20:22.392Z,88.60
2023-05-22T04:22:54.561Z,88.57
2023-05-22T04:25:24.393Z,88.68
2023-05-22T04:27:55.728Z,88.82
2023-05-22T04:30:25.863Z,88.99
2023-05-22T04:32:58.252Z,88.94
2023-05-22T04:35:29.767Z,89.04
2023-05-22T04:38:02.339Z,89.10
2023-05-22T04:40:33.872Z,88.75
2023-05-22T04:43:03.735Z,88.60
2023-05-22T04:45:33.863Z,88.49
2023-05-22T04:48:06.518Z,88.55
2023-05-22T04:50:39.162Z,88.83
2023-05-22T04:53:09.573Z,88.52
2023-05-22T04:55:40.077Z,88.54
2023-05-22T04:58:13.366Z,88.52
2023-05-22T05:00:43.496Z,88.36
2023-05-22T05:03:16.107Z,88.04
2023-05-22T05:05:46.393Z,88.01
2023-05-22T05:08:16.255Z,87.97
2023-05-22T05:10:46.143Z,87.93
2023-05-22T05:13:16.011Z,87.68
2023-05-22T05:15:48.075Z,87.78
2023-05-22T05:18:20.446Z,87.59
2023-05-22T05:20:51.807Z,87.33
2023-05-22T05:23:22.589Z,87.16
2023-05-22T05:25:52.404Z,87.10
2023-05-22T05:28:23.283Z,87.11
2023-05-22T05:30:53.256Z,86.42
2023-05-22T05:33:44.140Z,86.42
2023-05-22T05:36:34.480Z,86.55
2023-05-22T05:39:04.500Z,86.03
2023-05-22T05:41:37.384Z,85.67
2023-05-22T05:44:11.228Z,85.41
2023-05-22T05:46:41.425Z,85.35
2023-05-22T05:49:14.305Z,85.60
2023-05-22T05:51:45.222Z,85.22
2023-05-22T05:54:15.104Z,84.91
2023-05-22T05:56:44.907Z,84.86
2023-05-22T05:59:14.965Z,84.90
2023-05-22T06:02:00.662Z,84.25
2023-05-22T06:04:37.136Z,83.49
2023-05-22T06:07:08.101Z,83.51
2023-05-22T06:09:42.611Z,83.07
2023-05-22T06:12:38.842Z,82.13
2023-05-22T06:15:10.559Z,81.74
2023-05-22T06:17:40.515Z,80.54
2023-05-22T06:20:17.200Z,80.04
2023-05-22T06:22:47.011Z,79.91
2023-05-22T06:25:16.842Z,79.35
2023-05-22T06:27:47.534Z,79.40
2023-05-22T06:30:31.853Z,79.08
2023-05-22T06:33:10.489Z,78.48
2023-05-22T06:35:43.395Z,77.97
2023-05-22T06:38:13.330Z,78.10
2023-05-22T06:40:45.130Z,78.42
2023-05-22T06:43:24.540Z,77.67
2023-05-22T06:45:58.548Z,77.41
2023-05-22T06:48:47.096Z,76.50
2023-05-22T06:51:29.589Z,75.94
2023-05-22T06:54:07.824Z,75.33
2023-05-22T06:56:39.869Z,74.40
2023-05-22T06:59:13.756Z,73.83
2023-05-22T07:02:06.647Z,73.38
2023-05-22T07:04:58.904Z,72.98
2023-05-22T07:07:51.182Z,73.71
2023-05-22T07:10:20.959Z,73.36
2023-05-22T07:12:53.185Z,73.95
2023-05-22T07:15:22.963Z,73.82
2023-05-22T07:17:56.502Z,74.06
2023-05-22T07:20:26.441Z,73.62
2023-05-22T07:23:14.582Z,74.07
2023-05-22T07:25:45.686Z,73.96
2023-05-22T07:28:17.539Z,74.09
2023-05-22T07:31:03.700Z,73.92
2023-05-22T07:33:33.665Z,74.27
2023-05-22T07:36:03.473Z,74.26
2023-05-22T07:38:36.454Z,74.12
2023-05-22T07:41:08.103Z,74.47
2023-05-22T07:43:38.127Z,74.13
2023-05-22T07:46:09.590Z,73.54
2023-05-22T07:48:47.176Z,73.83
2023-05-22T07:51:18.214Z,73.81
2023-05-22T07:53:54.148Z,74.11
2023-05-22T07:56:25.912Z,74.22
2023-05-22T07:58:56.019Z,73.72
2023-05-22T08:01:26.449Z,74.25
2023-05-22T08:03:56.663Z,74.50
2023-05-22T08:06:27.173Z,74.18
2023-05-22T08:09:00.257Z,73.87
2023-05-22T08:11:30.057Z,74.29
2023-05-22T08:13:59.811Z,74.29
2023-05-22T08:16:31.085Z,74.31
2023-05-22T08:19:01.050Z,74.49
2023-05-22T08:21:33.291Z,74.75
2023-05-22T08:24:06.079Z,74.55
2023-05-22T08:26:35.937Z,74.90
2023-05-22T08:29:05.704Z,74.62
2023-05-22T08:31:36.099Z,74.79
2023-05-22T08:34:07.426Z,74.46
2023-05-22T08:36:37.608Z,74.65
2023-05-22T08:39:10.313Z,74.75
2023-05-22T08:41:40.144Z,74.65
2023-05-22T08:44:11.135Z,74.61
2023-05-22T08:46:41.768Z,75.07
2023-05-22T08:49:12.169Z,74.79
2023-05-22T08:51:43.056Z,74.49
2023-05-22T08:54:15.550Z,74.70
2023-05-22T08:56:55.694Z,74.51
2023-05-22T08:59:27.004Z,74.47
2023-05-22T09:01:58.257Z,74.97
2023-05-22T09:04:30.077Z,74.51
2023-05-22T09:07:05.873Z,74.60
2023-05-22T09:09:39.762Z,74.58
2023-05-22T09:12:12.022Z,74.69
2023-05-22T09:14:42.390Z,74.57
2023-05-22T09:17:12.938Z,74.31
2023-05-22T09:19:46.539Z,74.38
2023-05-22T09:22:16.889Z,74.35
2023-05-22T09:24:49.769Z,74.63
2023-05-22T09:27:19.542Z,74.16
2023-05-22T09:29:51.458Z,73.67
2023-05-22T09:32:22.059Z,73.52
2023-05-22T09:34:52.302Z,73.75
2023-05-22T09:37:22.147Z,72.91
2023-05-22T09:39:56.608Z,72.23
2023-05-22T09:42:27.573Z,72.15
2023-05-22T09:44:57.371Z,72.05
2023-05-22T09:47:27.213Z,71.22
2023-05-22T09:50:00.726Z,70.83
2023-05-22T09:52:31.702Z,70.21
2023-05-22T09:55:06.097Z,70.18
2023-05-22T09:57:40.210Z,69.63
2023-05-22T10:00:13.397Z,69.37
2023-05-22T10:02:45.715Z,69.11
2023-05-22T10:05:21.828Z,68.53
2023-05-22T10:07:52.880Z,67.88
2023-05-22T10:10:30.858Z,67.18
2023-05-22T10:13:04.582Z,67.11
2023-05-22T10:15:34.195Z,66.29
2023-05-22T10:18:04.371Z,65.89
2023-05-22T10:20:34.160Z,65.02
2023-05-22T10:23:06.283Z,64.46
2023-05-22T10:25:39.272Z,64.31
2023-05-22T10:28:09.735Z,63.80
2023-05-22T10:30:45.152Z,62.96
2023-05-22T10:33:40.020Z,62.50
2023-05-22T10:36:12.450Z,62.10
2023-05-22T10:38:58.435Z,61.47
2023-05-22T10:41:31.281Z,61.70
2023-05-22T10:44:01.036Z,61.46
2023-05-22T10:46:35.435Z,61.18
2023-05-22T10:49:05.411Z,60.67
2023-05-22T10:51:35.430Z,60.59
2023-05-22T10:54:05.845Z,60.29
2023-05-22T10:56:38.796Z,60.24
2023-05-22T10:59:08.893Z,60.08
2023-05-22T11:01:38.918Z,59.81
2023-05-22T11:04:20.195Z,58.56
2023-05-22T11:07:05.572Z,58.22
2023-05-22T11:09:36.371Z,57.94
2023-05-22T11:12:22.612Z,57.77
2023-05-22T11:14:54.054Z,57.42
2023-05-22T11:17:26.050Z,57.45
2023-05-22T11:20:06.807Z,57.22
2023-05-22T11:22:39.947Z,56.55
2023-05-22T11:25:14.225Z,56.75
2023-05-22T11:27:47.502Z,57.12
2023-05-22T11:30:21.240Z,57.12
2023-05-22T11:32:51.011Z,57.79
2023-05-22T11:35:21.728Z,57.68
2023-05-22T11:37:54.501Z,57.50
2023-05-22T11:40:26.155Z,57.24
2023-05-22T11:42:59.049Z,57.44
2023-05-22T11:45:29.835Z,57.36
2023-05-22T11:47:59.745Z,57.90
2023-05-22T11:50:41.773Z,57.59
2023-05-22T11:53:12.747Z,58.18
2023-05-22T11:55:42.533Z,58.32
2023-05-22T11:58:15.300Z,57.67
2023-05-22T12:00:46.374Z,58.03
2023-05-22T12:03:17.719Z,58.44
2023-05-22T12:05:49.473Z,58.48
2023-05-22T12:08:19.397Z,58.39
2023-05-22T12:10:51.013Z,58.60
2023-05-22T12:13:32.809Z,58.41
2023-05-22T12:16:03.462Z,58.29
2023-05-22T12:18:39.147Z,58.68
2023-05-22T12:21:09.569Z,58.61
2023-05-22T12:23:39.322Z,58.51
2023-05-22T12:26:12.409Z,58.45
2023-05-22T12:28:44.741Z,58.70
2023-05-22T12:31:14.662Z,59.16
2023-05-22T12:33:44.457Z,59.31
2023-05-22T12:36:14.478Z,58.93
2023-05-22T12:38:44.392Z,59.68
2023-05-22T12:41:14.461Z,59.45
2023-05-22T12:43:46.832Z,59.17
2023-05-22T12:46:16.743Z,59.22
2023-05-22T12:48:46.494Z,58.85
2023-05-22T12:51:18.033Z,58.81
2023-05-22T12:53:49.073Z,58.93
2023-05-22T12:56:18.813Z,58.80
2023-05-22T12:58:51.225Z,59.16
2023-05-22T13:01:21.908Z,59.26
2023-05-22T13:03:52.003Z,59.46
2023-05-22T13:06:21.973Z,59.25
2023-05-22T13:08:51.792Z,58.81
2023-05-22T13:11:23.587Z,59.05
2023-05-22T13:13:55.910Z,58.75
2023-05-22T13:16:25.732Z,58.57
2023-05-22T13:18:55.513Z,58.89
2023-05-22T13:21:26.722Z,58.63
2023-05-22T13:23:56.861Z,58.56
2023-05-22T13:26:26.785Z,58.77
2023-05-22T13:28:59.636Z,58.34
2023-05-22T13:31:29.395Z,58.38
2023-05-22T13:34:01.566Z,58.81
2023-05-22T13:36:32.631Z,58.76
2023-05-22T13:39:02.592Z,58.89
2023-05-22T13:41:32.377Z,58.08
2023-05-22T13:44:04.767Z,58.56
2023-05-22T13:46:34.555Z,58.83
2023-05-22T13:49:04.333Z,58.51
2023-05-22T13:51:34.119Z,58.50
2023-05-22T13:54:03.909Z,58.63
2023-05-22T13:56:33.804Z,58.51
2023-05-22T13:59:09.181Z,58.27
2023-05-22T14:01:39.520Z,57.72
2023-05-22T14:04:09.452Z,57.43
2023-05-22T14:06:39.426Z,58.03
2023-05-22T14:09:09.747Z,57.46
2023-05-22T14:11:39.544Z,57.33
2023-05-22T14:14:11.897Z,57.25
2023-05-22T14:16:42.211Z,57.68
2023-05-22T14:19:12.479Z,57.35
2023-05-22T14:21:42.222Z,57.24
2023-05-22T14:24:11.973Z,57.36
2023-05-22T14:26:42.241Z,57.01
2023-05-22T14:29:14.916Z,56.75
2023-05-22T14:31:51.441Z,56.79
2023-05-22T14:34:21.855Z,55.90
2023-05-22T14:36:51.658Z,56.29
2023-05-22T14:39:21.415Z,55.88
2023-05-22T14:41:51.531Z,55.83
2023-05-22T14:44:24.113Z,55.91
2023-05-22T14:46:54.764Z,55.66
2023-05-22T14:49:24.566Z,55.83
2023-05-22T14:51:54.780Z,54.97
2023-05-22T14:54:24.512Z,54.99
2023-05-22T14:56:54.307Z,55.68
2023-05-22T14:59:26.665Z,55.79
2023-05-22T15:01:56.500Z,55.64
2023-05-22T15:04:26.416Z,55.94
2023-05-22T15:06:56.475Z,55.95
2023-05-22T15:09:26.418Z,55.89
2023-05-22T15:11:56.222Z,56.16
2023-05-22T15:14:28.523Z,56.74
2023-05-22T15:16:58.275Z,56.20
2023-05-22T15:19:28.178Z,56.32
2023-05-22T15:22:05.819Z,55.90
2023-05-22T15:24:47.133Z,55.57
2023-05-22T15:27:17.454Z,55.84
2023-05-22T15:29:49.772Z,56.24
2023-05-22T15:32:19.560Z,55.95
2023-05-22T15:34:49.397Z,56.10
2023-05-22T15:37:19.160Z,56.74
2023-05-22T15:39:49.046Z,56.76
2023-05-22T15:42:18.827Z,56.14
2023-05-22T15:44:51.212Z,56.88
2023-05-22T15:47:20.977Z,56.20
2023-05-22T15:49:50.751Z,56.39
2023-05-22T15:52:22.640Z,56.59
2023-05-22T15:54:52.663Z,56.79
2023-05-22T15:57:22.938Z,56.93
2023-05-22T15:59:55.318Z,57.11
2023-05-22T16:02:25.623Z,57.40
2023-05-22T16:04:55.458Z,57.41
2023-05-22T16:07:25.254Z,56.94
2023-05-22T16:09:55.009Z,56.78
2023-05-22T16:12:24.907Z,56.93
2023-05-22T16:15:00.377Z,57.01
2023-05-22T16:17:30.922Z,56.78
2023-05-22T16:20:00.700Z,57.29
2023-05-22T16:22:44.285Z,57.52
2023-05-22T16:25:18.651Z,57.71
2023-05-22T16:27:48.429Z,57.75
2023-05-22T16:30:21.456Z,57.97
2023-05-22T16:32:51.731Z,58.34
2023-05-22T16:35:22.372Z,58.42
2023-05-22T16:37:52.937Z,58.74
2023-05-22T16:40:22.819Z,58.69
2023-05-22T16:42:52.530Z,58.57
2023-05-22T16:45:25.029Z,58.85
2023-05-22T16:47:55.922Z,58.84
2023-05-22T16:50:26.035Z,58.93
2023-05-22T16:52:56.434Z,59.09
2023-05-22T16:55:26.212Z,59.28
2023-05-22T16:57:55.942Z,58.92
2023-05-22T17:00:28.503Z,58.60
2023-05-22T17:02:58.788Z,58.65
2023-05-22T17:05:28.739Z,59.21
2023-05-22T17:07:58.522Z,59.03
2023-05-22T17:10:28.298Z,59.03
2023-05-22T17:12:58.053Z,59.37
2023-05-22T17:15:30.439Z,59.14
2023-05-22T17:18:00.422Z,59.89
2023-05-22T17:20:30.198Z,59.74
2023-05-22T17:22:59.947Z,60.01
2023-05-22T17:25:29.719Z,60.08
2023-05-22T17:27:59.580Z,59.84
2023-05-22T17:30:32.138Z,59.75
2023-05-22T17:33:03.730Z,60.00
2023-05-22T17:35:33.805Z,59.23
2023-05-22T17:38:03.539Z,59.43
2023-05-22T17:40:43.855Z,59.09
2023-05-22T17:43:14.390Z,59.37
2023-05-22T17:45:50.265Z,59.46
2023-05-22T17:48:23.848Z,59.68
2023-05-22T17:50:53.467Z,59.83
2023-05-22T17:53:23.589Z,60.30
2023-05-22T17:55:54.249Z,60.45
2023-05-22T17:58:24.130Z,60.92
2023-05-22T18:00:56.525Z,61.33
2023-05-22T18:03:26.594Z,61.56
2023-05-22T18:05:56.439Z,61.88
2023-05-22T18:08:26.234Z,61.82
2023-05-22T18:10:57.337Z,62.26
2023-05-22T18:13:27.144Z,62.74
2023-05-22T18:16:00.205Z,63.14
2023-05-22T18:18:30.343Z,63.67
2023-05-22T18:21:01.159Z,64.34
2023-05-22T18:23:30.995Z,64.96
2023-05-22T18:26:01.264Z,65.26
2023-05-22T18:28:30.981Z,65.62
2023-05-22T18:31:04.284Z,66.18
2023-05-22T18:33:34.383Z,66.41
2023-05-22T18:36:04.549Z,66.59
2023-05-22T18:38:34.338Z,66.84
2023-05-22T18:41:04.138Z,67.06
2023-05-22T18:43:33.881Z,67.50
2023-05-22T18:46:06.772Z,67.97
2023-05-22T18:48:36.554Z,68.38
2023-05-22T18:51:06.606Z,68.94
2023-05-22T18:53:36.374Z,69.36
2023-05-22T18:56:06.233Z,69.68
2023-05-22T18:58:37.807Z,70.00
2023-05-22T19:01:10.735Z,70.36
2023-05-22T19:03:40.592Z,70.72
2023-05-22T19:06:10.316Z,70.68
2023-05-22T19:08:40.621Z,71.41
2023-05-22T19:11:10.414Z,71.44
2023-05-22T19:13:41.332Z,71.60
2023-05-22T19:16:13.788Z,72.36
2023-05-22T19:18:43.646Z,71.99
2023-05-22T19:21:13.406Z,72.61
2023-05-22T19:23:43.390Z,72.73
2023-05-22T19:26:13.265Z,72.90
2023-05-22T19:28:43.388Z,73.06
2023-05-22T19:31:16.646Z,73.59
2023-05-22T19:33:47.097Z,73.38
2023-05-22T19:36:16.871Z,73.80
2023-05-22T19:38:46.653Z,73.97
2023-05-22T19:41:17.305Z,73.77
2023-05-22T19:43:47.332Z,74.03
2023-05-22T19:46:19.812Z,74.11
2023-05-22T19:48:49.800Z,74.42
2023-05-22T19:51:19.667Z,75.01
2023-05-22T19:53:49.498Z,75.12
2023-05-22T19:56:19.300Z,75.60
2023-05-22T19:58:49.100Z,75.98
2023-05-22T20:01:21.545Z,76.06
2023-05-22T20:03:51.773Z,76.29
2023-05-22T20:06:21.961Z,76.47
2023-05-22T20:08:51.736Z,76.99
2023-05-22T20:11:21.803Z,77.35
2023-05-22T20:13:54.725Z,77.56
2023-05-22T20:16:29.543Z,78.05
2023-05-22T20:18:59.597Z,77.59
2023-05-22T20:21:29.349Z,77.77
2023-05-22T20:23:59.543Z,78.19
2023-05-22T20:26:29.559Z,78.26
2023-05-22T20:28:59.316Z,78.15
2023-05-22T20:31:31.874Z,78.31
2023-05-22T20:34:02.132Z,78.09
2023-05-22T20:36:32.655Z,78.13
2023-05-22T20:39:02.565Z,78.02
2023-05-22T20:41:32.313Z,78.02
2023-05-22T20:44:02.768Z,78.36
2023-05-22T20:46:35.597Z,78.14
2023-05-22T20:49:06.276Z,78.24
2023-05-22T20:51:37.111Z,78.05
2023-05-22T20:54:07.020Z,78.51
2023-05-22T20:56:37.827Z,78.52
2023-05-22T20:59:07.604Z,78.37
2023-05-22T21:01:40.048Z,78.55
2023-05-22T21:04:10.103Z,78.63
2023-05-22T21:06:40.045Z,78.35
2023-05-22T21:09:09.807Z,78.76
2023-05-22T21:11:39.572Z,78.50
2023-05-22T21:14:09.463Z,78.82
2023-05-22T21:16:41.873Z,79.03
2023-05-22T21:19:11.725Z,78.88
2023-05-22T21:21:41.955Z,79.19
2023-05-22T21:24:12.394Z,79.12
2023-05-22T21:26:42.173Z,79.36
2023-05-22T21:29:11.983Z,79.38
2023-05-22T21:31:44.358Z,79.75
2023-05-22T21:34:14.144Z,79.74
2023-05-22T21:36:43.934Z,79.70
2023-05-22T21:39:13.844Z,80.07
2023-05-22T21:41:43.662Z,80.15
2023-05-22T21:44:13.427Z,80.08
2023-05-22T21:46:46.067Z,80.10
2023-05-22T21:49:15.877Z,80.50
2023-05-22T21:51:45.679Z,80.52
2023-05-22T21:54:15.481Z,80.90
2023-05-22T21:56:45.239Z,80.62
2023-05-22T21:59:15.059Z,80.76
2023-05-22T22:01:47.510Z,81.17
2023-05-22T22:04:17.262Z,81.31
2023-05-22T22:06:47.030Z,81.37
2023-05-22T22:09:16.846Z,81.34
2023-05-22T22:11:48.685Z,81.57
2023-05-22T22:14:18.550Z,81.58
2023-05-22T22:16:54.371Z,82.04
2023-05-22T22:19:24.874Z,82.07
2023-05-22T22:21:55.172Z,82.39
2023-05-22T22:24:24.902Z,82.28
2023-05-22T22:26:55.129Z,82.62
2023-05-22T22:29:24.991Z,82.78
2023-05-22T22:31:57.354Z,82.92
2023-05-22T22:34:27.197Z,82.90
2023-05-22T22:36:57.547Z,82.99
2023-05-22T22:39:27.795Z,83.07
2023-05-22T22:42:02.034Z,83.32
2023-05-22T22:44:31.912Z,83.42
2023-05-22T22:47:04.792Z,83.49
2023-05-22T22:49:35.077Z,83.67
2023-05-22T22:52:04.812Z,83.68
2023-05-22T22:54:34.592Z,83.65
2023-05-22T22:57:04.680Z,83.86
2023-05-22T22:59:35.624Z,83.87
2023-05-22T23:02:08.472Z,83.66
2023-05-22T23:04:38.309Z,83.89
2023-05-22T23:07:08.557Z,84.08
2023-05-22T23:09:40.162Z,83.91
2023-05-22T23:12:11.257Z,83.96
2023-05-22T23:14:41.016Z,84.17
2023-05-22T23:17:13.379Z,84.02
2023-05-22T23:19:43.234Z,84.10
2023-05-22T23:22:13.196Z,84.12
2023-05-22T23:24:42.953Z,84.04
2023-05-22T23:27:12.736Z,84.21
2023-05-22T23:29:43.639Z,84.20
2023-05-22T23:32:16.056Z,84.11
2023-05-22T23:34:45.876Z,84.16
2023-05-22T23:37:15.623Z,84.02
2023-05-22T23:39:45.386Z,83.58
2023-05-22T23:42:15.721Z,84.10
2023-05-22T23:44:45.635Z,84.14
2023-05-22T23:47:18.994Z,84.26
2023-05-22T23:49:48.807Z,84.53
2023-05-22T23:52:18.670Z,84.52
2023-05-22T23:54:48.438Z,84.92
2023-05-22T23:57:18.259Z,85.34
2023-05-22T23:59:48.009Z,85.30
